createdAt,value
2022-10-05T00:01:35.475Z,99388.22
2022-10-05T00:04:18.834Z,99381.06
2022-10-05T00:06:56.902Z,99380.28
2022-10-05T00:09:24.327Z,99388.44
2022-10-05T00:11:51.832Z,99387.31
2022-10-05T00:14:29.655Z,99387.13
2022-10-05T00:16:57.854Z,99391.25
2022-10-05T00:19:39.141Z,99396.34
2022-10-05T00:22:09.705Z,99391.88
2022-10-05T00:24:37.409Z,99391.59
2022-10-05T00:27:25.903Z,99392.56
2022-10-05T00:30:01.301Z,99393.56
2022-10-05T00:32:28.701Z,99385.38
2022-10-05T00:34:57.958Z,99387.50
2022-10-05T00:37:25.193Z,99378.81
2022-10-05T00:39:52.556Z,99376.72
2022-10-05T00:42:50.745Z,99379.19
2022-10-05T00:45:40.415Z,99377.56
2022-10-05T00:48:52.203Z,99377.88
2022-10-05T00:51:29.857Z,99375.59
2022-10-05T00:54:40.915Z,99374.59
2022-10-05T00:57:54.399Z,99380.97
2022-10-05T01:00:27.204Z,99385.28
2022-10-05T01:03:13.497Z,99376.97
2022-10-05T01:05:54.083Z,99385.06
2022-10-05T01:08:58.096Z,99381.66
2022-10-05T01:11:52.443Z,99375.06
2022-10-05T01:14:34.941Z,99369.69
2022-10-05T01:17:22.658Z,99370.69
2022-10-05T01:20:42.019Z,99373.13
2022-10-05T01:24:08.364Z,99372.97
2022-10-05T01:27:31.294Z,99360.31
2022-10-05T01:30:19.722Z,99366.75
2022-10-05T01:33:10.369Z,99365.09
2022-10-05T01:36:00.466Z,99355.69
2022-10-05T01:38:51.055Z,99357.78
2022-10-05T01:42:13.620Z,99356.50
2022-10-05T01:45:23.944Z,99358.69
2022-10-05T01:48:02.758Z,99354.78
2022-10-05T01:51:13.568Z,99352.25
2022-10-05T01:54:17.031Z,99358.31
2022-10-05T01:56:59.969Z,99364.50
2022-10-05T01:59:58.878Z,99360.63
2022-10-05T02:02:32.465Z,99361.00
2022-10-05T02:05:24.889Z,99359.78
2022-10-05T02:08:16.170Z,99354.22
2022-10-05T02:11:05.698Z,99347.91
2022-10-05T02:14:02.474Z,99344.84
2022-10-05T02:16:40.671Z,99341.91
2022-10-05T02:19:28.143Z,99347.06
2022-10-05T02:22:06.930Z,99347.66
2022-10-05T02:24:55.672Z,99348.97
2022-10-05T02:27:34.730Z,99337.72
2022-10-05T02:30:10.497Z,99337.44
2022-10-05T02:32:58.697Z,99343.16
2022-10-05T02:35:27.090Z,99338.56
2022-10-05T02:38:36.891Z,99339.25
2022-10-05T02:41:23.040Z,99332.63
2022-10-05T02:44:23.651Z,99331.09
2022-10-05T02:47:09.946Z,99324.53
2022-10-05T02:50:07.126Z,99315.25
2022-10-05T02:53:21.210Z,99311.81
2022-10-05T02:56:47.229Z,99326.50
2022-10-05T02:59:50.390Z,99330.34
2022-10-05T03:02:34.475Z,99334.75
2022-10-05T03:05:33.939Z,99334.56
2022-10-05T03:08:17.723Z,99336.69
2022-10-05T03:11:22.278Z,99335.38
2022-10-05T03:14:07.051Z,99343.06
2022-10-05T03:17:04.563Z,99345.13
2022-10-05T03:19:48.577Z,99346.88
2022-10-05T03:22:48.139Z,99341.13
2022-10-05T03:25:28.682Z,99334.94
2022-10-05T03:28:39.041Z,99334.81
2022-10-05T03:31:31.018Z,99340.88
2022-10-05T03:34:33.345Z,99333.16
2022-10-05T03:37:33.974Z,99326.81
2022-10-05T03:41:17.370Z,99322.72
2022-10-05T03:44:59.895Z,99317.72
2022-10-05T03:48:43.245Z,99318.75
2022-10-05T03:52:26.519Z,99313.72
2022-10-05T03:56:09.375Z,99310.13
2022-10-05T03:58:57.512Z,99305.38
2022-10-05T04:02:09.463Z,99313.19
2022-10-05T04:05:06.023Z,99314.06
2022-10-05T04:07:43.593Z,99308.41
2022-10-05T04:11:27.310Z,99303.69
2022-10-05T04:14:06.831Z,99305.31
2022-10-05T04:16:59.153Z,99300.44
2022-10-05T04:19:40.753Z,99303.81
2022-10-05T04:22:32.484Z,99300.66
2022-10-05T04:26:15.852Z,99300.47
2022-10-05T04:29:58.938Z,99297.53
2022-10-05T04:33:41.891Z,99297.06
2022-10-05T04:37:24.717Z,99296.59
2022-10-05T04:40:33.705Z,99301.84
2022-10-05T04:43:30.507Z,99290.66
2022-10-05T04:46:51.462Z,99304.34
2022-10-05T04:50:22.947Z,99306.13
2022-10-05T04:53:16.663Z,99302.66
2022-10-05T04:56:12.862Z,99309.72
2022-10-05T04:59:07.618Z,99309.53
2022-10-05T05:02:12.304Z,99316.31
2022-10-05T05:05:25.086Z,99311.84
2022-10-05T05:08:35.055Z,99320.47
2022-10-05T05:11:34.141Z,99310.88
2022-10-05T05:15:19.048Z,99317.91
2022-10-05T05:18:36.729Z,99322.78
2022-10-05T05:22:09.585Z,99337.06
2022-10-05T05:25:53.913Z,99342.28
2022-10-05T05:29:36.819Z,99332.63
2022-10-05T05:33:19.952Z,99338.13
2022-10-05T05:37:04.027Z,99341.53
2022-10-05T05:40:16.401Z,99344.38
2022-10-05T05:43:12.535Z,99348.34
2022-10-05T05:47:04.072Z,99352.94
2022-10-05T05:49:53.802Z,99349.34
2022-10-05T05:53:38.098Z,99356.50
2022-10-05T05:57:21.065Z,99355.19
2022-10-05T06:00:10.911Z,99366.41
2022-10-05T06:04:00.995Z,99371.28
2022-10-05T06:07:44.087Z,99368.22
2022-10-05T06:11:26.951Z,99378.94
2022-10-05T06:15:10.575Z,99373.88
2022-10-05T06:17:48.787Z,99377.31
2022-10-05T06:21:32.588Z,99383.38
2022-10-05T06:24:26.217Z,99396.22
2022-10-05T06:27:29.939Z,99397.22
2022-10-05T06:30:16.342Z,99406.00
2022-10-05T06:32:51.039Z,99398.94
2022-10-05T06:35:41.933Z,99398.94
2022-10-05T06:39:13.380Z,99411.19
2022-10-05T06:42:13.655Z,99416.03
2022-10-05T06:46:15.497Z,99411.31
2022-10-05T06:50:17.143Z,99403.38
2022-10-05T06:54:11.795Z,99407.47
2022-10-05T06:57:54.992Z,99416.41
2022-10-05T07:01:06.784Z,99427.00
2022-10-05T07:04:50.065Z,99410.34
2022-10-05T07:08:10.178Z,99421.75
2022-10-05T07:11:58.505Z,99415.91
2022-10-05T07:15:45.863Z,99412.97
2022-10-05T07:19:29.772Z,99415.13
2022-10-05T07:22:23.865Z,99413.16
2022-10-05T07:26:07.166Z,99415.97
2022-10-05T07:29:50.515Z,99413.63
2022-10-05T07:33:34.328Z,99418.44
2022-10-05T07:37:10.081Z,99413.25
2022-10-05T07:40:13.211Z,99422.06
2022-10-05T07:43:57.600Z,99421.41
2022-10-05T07:47:01.240Z,99434.75
2022-10-05T07:50:35.039Z,99440.53
2022-10-05T07:54:17.811Z,99446.88
2022-10-05T07:58:00.223Z,99450.53
2022-10-05T08:01:11.230Z,99446.91
2022-10-05T08:04:57.056Z,99445.47
2022-10-05T08:10:22.927Z,99440.94
2022-10-05T08:13:34.272Z,99435.38
2022-10-05T08:16:12.669Z,99441.59
2022-10-05T08:19:00.794Z,99444.63
2022-10-05T08:22:43.490Z,99448.19
2022-10-05T08:26:26.411Z,99443.31
2022-10-05T08:29:31.961Z,99440.88
2022-10-05T08:32:10.186Z,99435.91
2022-10-05T08:35:35.753Z,99432.50
2022-10-05T08:38:14.815Z,99440.63
2022-10-05T08:41:57.283Z,99438.72
2022-10-05T08:44:45.414Z,99436.13
2022-10-05T08:48:28.012Z,99422.88
2022-10-05T08:52:13.078Z,99424.31
2022-10-05T08:55:46.321Z,99430.44
2022-10-05T08:58:57.436Z,99427.25
2022-10-05T09:01:30.396Z,99423.16
2022-10-05T09:04:35.968Z,99417.09
2022-10-05T09:07:37.897Z,99407.84
2022-10-05T09:10:17.330Z,99417.16
2022-10-05T09:13:28.000Z,99408.31
2022-10-05T09:16:45.990Z,99412.84
2022-10-05T09:20:18.377Z,99408.44
2022-10-05T09:23:37.092Z,99411.22
2022-10-05T09:26:34.035Z,99406.16
2022-10-05T09:30:01.097Z,99407.94
2022-10-05T09:33:10.723Z,99399.13
2022-10-05T09:36:03.744Z,99399.56
2022-10-05T09:39:22.569Z,99392.97
2022-10-05T09:42:52.904Z,99394.88
2022-10-05T09:46:29.629Z,99389.53
2022-10-05T09:49:24.755Z,99388.56
2022-10-05T09:52:09.877Z,99379.00
2022-10-05T09:55:39.260Z,99373.19
2022-10-05T09:58:48.192Z,99364.72
2022-10-05T10:01:40.854Z,99359.16
2022-10-05T10:04:49.177Z,99351.41
2022-10-05T10:08:01.108Z,99347.59
2022-10-05T10:11:00.654Z,99348.53
2022-10-05T10:14:28.971Z,99337.63
2022-10-05T10:18:01.916Z,99336.59
2022-10-05T10:20:59.258Z,99334.41
2022-10-05T10:24:23.871Z,99332.97
2022-10-05T10:27:30.102Z,99333.34
2022-10-05T10:30:42.312Z,99324.44
2022-10-05T10:34:21.204Z,99329.69
2022-10-05T10:37:34.544Z,99311.13
2022-10-05T10:41:06.277Z,99323.91
2022-10-05T10:44:49.005Z,99313.13
2022-10-05T10:48:31.690Z,99311.47
2022-10-05T10:51:53.472Z,99305.88
2022-10-05T10:55:17.272Z,99295.91
2022-10-05T10:58:59.658Z,99292.97
2022-10-05T11:02:42.609Z,99271.44
2022-10-05T11:06:26.089Z,99277.78
2022-10-05T11:10:09.704Z,99272.78
2022-10-05T11:13:18.529Z,99268.56
2022-10-05T11:17:00.718Z,99263.75
2022-10-05T11:20:42.915Z,99255.97
2022-10-05T11:24:12.860Z,99248.00
2022-10-05T11:26:52.853Z,99251.25
2022-10-05T11:30:23.181Z,99249.63
2022-10-05T11:33:43.329Z,99237.53
2022-10-05T11:36:47.623Z,99229.84
2022-10-05T11:40:11.071Z,99239.34
2022-10-05T11:43:22.767Z,99225.81
2022-10-05T11:46:40.880Z,99224.81
2022-10-05T11:49:47.026Z,99231.91
2022-10-05T11:52:38.588Z,99214.88
2022-10-05T11:55:23.029Z,99222.78
2022-10-05T11:57:58.738Z,99215.25
2022-10-05T12:00:40.580Z,99211.72
2022-10-05T12:03:43.435Z,99212.53
2022-10-05T12:06:48.557Z,99205.75
2022-10-05T12:10:12.812Z,99211.47
2022-10-05T12:13:07.245Z,99190.22
2022-10-05T12:15:52.507Z,99195.91
2022-10-05T12:19:04.787Z,99198.47
2022-10-05T12:22:04.037Z,99198.59
2022-10-05T12:24:37.656Z,99182.66
2022-10-05T12:27:21.059Z,99187.81
2022-10-05T12:30:27.395Z,99182.97
2022-10-05T12:33:02.275Z,99183.75
2022-10-05T12:35:49.748Z,99179.13
2022-10-05T12:38:55.218Z,99169.16
2022-10-05T12:42:03.107Z,99168.38
2022-10-05T12:45:13.480Z,99167.91
2022-10-05T12:48:29.953Z,99173.47
2022-10-05T12:51:47.068Z,99160.28
2022-10-05T12:54:21.989Z,99165.50
2022-10-05T12:58:05.420Z,99154.22
2022-10-05T13:01:48.213Z,99150.75
2022-10-05T13:05:31.099Z,99151.44
2022-10-05T13:09:13.874Z,99141.53
2022-10-05T13:12:57.127Z,99145.16
2022-10-05T13:16:40.326Z,99143.03
2022-10-05T13:20:22.761Z,99142.25
2022-10-05T13:24:05.734Z,99137.63
2022-10-05T13:27:48.410Z,99133.94
2022-10-05T13:31:31.105Z,99140.78
2022-10-05T13:35:14.251Z,99128.56
2022-10-05T13:38:57.094Z,99142.91
2022-10-05T13:42:39.802Z,99139.47
2022-10-05T13:46:22.089Z,99133.59
2022-10-05T13:50:04.824Z,99127.53
2022-10-05T13:53:47.487Z,99133.41
2022-10-05T13:57:30.608Z,99118.72
2022-10-05T14:01:13.587Z,99123.97
2022-10-05T14:04:05.284Z,99122.31
2022-10-05T14:06:37.403Z,99120.34
2022-10-05T14:09:05.139Z,99126.91
2022-10-05T14:11:36.895Z,99117.81
2022-10-05T14:14:13.799Z,99123.75
2022-10-05T14:16:56.147Z,99121.25
2022-10-05T14:19:48.232Z,99118.94
2022-10-05T14:22:26.511Z,99122.88
2022-10-05T14:25:17.168Z,99120.84
2022-10-05T14:28:11.315Z,99115.03
2022-10-05T14:30:39.933Z,99110.94
2022-10-05T14:33:17.189Z,99109.94
2022-10-05T14:35:57.720Z,99115.13
2022-10-05T14:38:36.864Z,99111.81
2022-10-05T14:41:20.356Z,99108.41
2022-10-05T14:44:10.962Z,99113.88
2022-10-05T14:46:50.027Z,99116.44
2022-10-05T14:49:36.185Z,99106.25
2022-10-05T14:53:18.991Z,99099.91
2022-10-05T14:57:02.535Z,99103.00
2022-10-05T15:00:48.793Z,99096.75
2022-10-05T15:04:33.816Z,99092.38
2022-10-05T15:08:17.289Z,99099.88
2022-10-05T15:11:16.901Z,99093.66
2022-10-05T15:14:59.990Z,99094.16
2022-10-05T15:18:42.918Z,99098.81
2022-10-05T15:22:26.426Z,99098.47
2022-10-05T15:26:10.733Z,99092.72
2022-10-05T15:29:16.268Z,99100.25
2022-10-05T15:32:11.129Z,99097.47
2022-10-05T15:35:17.712Z,99100.25
2022-10-05T15:38:21.017Z,99099.66
2022-10-05T15:41:33.522Z,99099.88
2022-10-05T15:45:16.518Z,99099.88
2022-10-05T15:48:59.297Z,99106.03
2022-10-05T15:51:42.407Z,99109.38
2022-10-05T15:54:46.832Z,99107.91
2022-10-05T15:58:08.427Z,99106.31
2022-10-05T16:01:51.986Z,99112.81
2022-10-05T16:05:05.075Z,99118.50
2022-10-05T16:08:11.333Z,99121.41
2022-10-05T16:11:54.346Z,99122.63
2022-10-05T16:15:37.594Z,99128.25
2022-10-05T16:18:49.988Z,99135.78
2022-10-05T16:22:33.006Z,99132.78
2022-10-05T16:26:16.205Z,99142.53
2022-10-05T16:29:09.842Z,99137.38
2022-10-05T16:32:55.292Z,99143.97
2022-10-05T16:36:40.591Z,99147.06
2022-10-05T16:39:44.154Z,99150.28
2022-10-05T16:42:30.902Z,99155.16
2022-10-05T16:45:37.671Z,99158.34
2022-10-05T16:49:23.919Z,99167.47
2022-10-05T16:52:49.750Z,99163.09
2022-10-05T16:57:29.377Z,99171.13
2022-10-05T17:01:11.202Z,99175.31
2022-10-05T17:05:05.399Z,99188.69
2022-10-05T17:08:54.869Z,99190.47
2022-10-05T17:13:05.360Z,99195.75
2022-10-05T17:17:25.339Z,99200.34
2022-10-05T17:20:53.826Z,99200.47
2022-10-05T17:24:51.376Z,99200.47
2022-10-05T17:28:24.774Z,99209.88
2022-10-05T17:31:19.156Z,99220.41
2022-10-05T17:34:36.328Z,99225.16
2022-10-05T17:37:48.523Z,99225.81
2022-10-05T17:40:38.172Z,99223.91
2022-10-05T17:43:14.774Z,99228.78
2022-10-05T17:45:45.929Z,99226.44
2022-10-05T17:48:48.377Z,99229.50
2022-10-05T17:51:48.415Z,99229.72
2022-10-05T17:55:09.426Z,99227.53
2022-10-05T17:57:37.646Z,99232.31
2022-10-05T18:00:40.304Z,99233.84
2022-10-05T18:03:35.874Z,99239.13
2022-10-05T18:07:04.987Z,99226.41
2022-10-05T18:10:06.000Z,99239.94
2022-10-05T18:12:36.662Z,99237.25
2022-10-05T18:15:06.966Z,99237.94
2022-10-05T18:17:43.841Z,99242.19
2022-10-05T18:20:30.215Z,99240.19
2022-10-05T18:23:05.956Z,99246.78
2022-10-05T18:26:23.819Z,99252.13
2022-10-05T18:29:52.015Z,99256.03
2022-10-05T18:33:04.454Z,99273.47
2022-10-05T18:35:56.311Z,99274.75
2022-10-05T18:39:22.957Z,99280.53
2022-10-05T18:43:03.119Z,99286.78
2022-10-05T18:46:46.387Z,99288.59
2022-10-05T18:50:30.536Z,99292.16
2022-10-05T18:53:43.416Z,99289.34
2022-10-05T18:56:44.096Z,99293.31
2022-10-05T18:59:46.554Z,99292.53
2022-10-05T19:03:30.874Z,99297.03
2022-10-05T19:07:14.035Z,99302.09
2022-10-05T19:10:59.154Z,99305.78
2022-10-05T19:14:26.374Z,99321.50
2022-10-05T19:18:09.832Z,99320.97
2022-10-05T19:21:21.495Z,99319.81
2022-10-05T19:24:41.748Z,99333.34
2022-10-05T19:27:55.328Z,99334.47
2022-10-05T19:31:38.326Z,99339.53
2022-10-05T19:35:10.526Z,99343.47
2022-10-05T19:38:53.525Z,99345.41
2022-10-05T19:42:20.476Z,99361.84
2022-10-05T19:45:26.273Z,99361.75
2022-10-05T19:48:33.402Z,99370.72
2022-10-05T19:51:05.543Z,99381.09
2022-10-05T19:53:38.343Z,99379.97
2022-10-05T19:56:25.516Z,99382.81
2022-10-05T19:58:56.434Z,99395.94
2022-10-05T20:01:34.032Z,99402.44
2022-10-05T20:04:01.818Z,99403.56
2022-10-05T20:06:31.080Z,99405.28
2022-10-05T20:09:04.618Z,99414.66
2022-10-05T20:11:51.884Z,99402.13
2022-10-05T20:14:33.426Z,99420.13
2022-10-05T20:17:46.737Z,99423.88
2022-10-05T20:20:34.317Z,99428.91
2022-10-05T20:23:30.457Z,99432.41
2022-10-05T20:26:16.849Z,99434.41
2022-10-05T20:28:44.610Z,99437.09
2022-10-05T20:31:14.459Z,99444.25
2022-10-05T20:33:41.992Z,99451.03
2022-10-05T20:36:09.500Z,99452.38
2022-10-05T20:38:40.851Z,99455.50
2022-10-05T20:41:08.817Z,99468.53
2022-10-05T20:43:38.942Z,99462.91
2022-10-05T20:46:07.524Z,99468.28
2022-10-05T20:48:36.162Z,99473.44
2022-10-05T20:51:03.459Z,99468.81
2022-10-05T20:53:30.747Z,99470.50
2022-10-05T20:55:59.716Z,99473.25
2022-10-05T20:58:27.432Z,99481.00
2022-10-05T21:01:13.696Z,99485.16
2022-10-05T21:03:44.354Z,99487.38
2022-10-05T21:06:11.798Z,99494.44
2022-10-05T21:08:39.696Z,99502.09
2022-10-05T21:11:16.126Z,99499.47
2022-10-05T21:13:45.313Z,99505.28
2022-10-05T21:16:19.261Z,99507.41
2022-10-05T21:18:50.195Z,99517.31
2022-10-05T21:21:18.583Z,99527.88
2022-10-05T21:23:48.655Z,99529.25
2022-10-05T21:26:16.766Z,99522.69
2022-10-05T21:28:44.646Z,99529.88
2022-10-05T21:31:12.037Z,99532.59
2022-10-05T21:33:39.251Z,99535.47
2022-10-05T21:36:06.803Z,99540.00
2022-10-05T21:38:34.602Z,99535.81
2022-10-05T21:41:01.984Z,99548.84
2022-10-05T21:43:29.714Z,99552.22
2022-10-05T21:45:58.016Z,99550.56
2022-10-05T21:48:26.450Z,99552.47
2022-10-05T21:50:54.810Z,99557.22
2022-10-05T21:53:31.777Z,99557.31
2022-10-05T21:56:02.894Z,99565.06
2022-10-05T21:58:31.645Z,99564.16
2022-10-05T22:00:59.104Z,99561.84
2022-10-05T22:03:26.482Z,99560.59
2022-10-05T22:05:54.431Z,99568.78
2022-10-05T22:08:31.205Z,99561.28
2022-10-05T22:11:02.048Z,99566.03
2022-10-05T22:14:14.926Z,99571.59
2022-10-05T22:16:44.595Z,99574.00
2022-10-05T22:19:19.322Z,99573.53
2022-10-05T22:21:46.969Z,99572.19
2022-10-05T22:24:14.734Z,99584.47
2022-10-05T22:26:48.567Z,99583.84
2022-10-05T22:29:17.621Z,99588.59
2022-10-05T22:31:49.107Z,99581.88
2022-10-05T22:34:18.394Z,99582.19
2022-10-05T22:36:50.897Z,99595.00
2022-10-05T22:39:18.568Z,99594.69
2022-10-05T22:41:46.735Z,99583.38
2022-10-05T22:44:14.199Z,99594.97
2022-10-05T22:46:41.505Z,99587.75
2022-10-05T22:49:09.644Z,99589.47
2022-10-05T22:51:37.188Z,99592.97
2022-10-05T22:54:05.663Z,99592.03
2022-10-05T22:56:33.321Z,99592.94
2022-10-05T22:59:00.791Z,99592.59
2022-10-05T23:01:28.780Z,99596.41
2022-10-05T23:03:57.264Z,99600.09
2022-10-05T23:06:28.014Z,99601.22
2022-10-05T23:08:56.779Z,99601.69
2022-10-05T23:11:29.041Z,99604.94
2022-10-05T23:13:57.600Z,99608.94
2022-10-05T23:16:29.806Z,99605.28
2022-10-05T23:18:58.584Z,99611.81
2022-10-05T23:21:30.568Z,99606.25
2022-10-05T23:23:57.986Z,99603.00
2022-10-05T23:26:26.468Z,99602.84
2022-10-05T23:28:54.421Z,99609.63
2022-10-05T23:31:28.984Z,99611.84
2022-10-05T23:33:57.132Z,99617.63
2022-10-05T23:36:32.207Z,99610.22
2022-10-05T23:39:00.400Z,99616.22
2022-10-05T23:41:28.977Z,99611.81
2022-10-05T23:43:56.879Z,99615.09
2022-10-05T23:46:24.681Z,99624.03
2022-10-05T23:48:53.175Z,99620.78
2022-10-05T23:51:20.906Z,99623.09
2022-10-05T23:53:48.252Z,99633.56
2022-10-05T23:56:15.678Z,99635.72
2022-10-05T23:58:43.065Z,99638.28
